RCF661S ZKPY-RJAA
Flight info
| Callsign | RCF661S |
|---|---|
| Flight time | 1h 44m |
| Altitude | 33000 |
| Route | SOC21D SOCHA DCT BIKSI/N0479F330 G597 LANAT Y51 LARIX |
| Aircraft | MD11/H-SDE1E2E3FGHIJ2J3J4J5M1RWXY/LB1D1 |
Departure
| Time | 2026-04-22 18:51 |
|---|---|
| Airport | Pyongyang Sunan International Airport (ZKPY) |
Arrival
| Time | 2026-04-22 20:35 |
|---|---|
| Airport | Narita International Airport (RJAA) |
| Time | Latitude | Longitude | Altitude | Speed | Heading |
|---|---|---|---|---|---|
| 2026-04-22 18:18 | 39.20048 | 125.66777 | 127 ft | 0 kts | 74° |
| 2026-04-22 18:43 | 39.20048 | 125.66778 | 127 ft | 0 kts | 74° |
| 2026-04-22 18:43 | 39.20051 | 125.66789 | 127 ft | 2 kts | 66° |
| 2026-04-22 18:43 | 39.20070 | 125.66806 | 127 ft | 5 kts | 25° |
| 2026-04-22 18:44 | 39.20126 | 125.66808 | 127 ft | 9 kts | 347° |
| 2026-04-22 18:44 | 39.20198 | 125.66786 | 127 ft | 11 kts | 345° |
| 2026-04-22 18:44 | 39.20276 | 125.66757 | 127 ft | 10 kts | 344° |
| 2026-04-22 18:44 | 39.20331 | 125.66787 | 127 ft | 8 kts | 66° |
| 2026-04-22 18:45 | 39.20354 | 125.66865 | 127 ft | 9 kts | 70° |
| 2026-04-22 18:45 | 39.20374 | 125.66951 | 127 ft | 10 kts | 78° |
| 2026-04-22 18:45 | 39.20381 | 125.67046 | 127 ft | 9 kts | 95° |
| 2026-04-22 18:45 | 39.20353 | 125.67115 | 127 ft | 9 kts | 123° |
| 2026-04-22 18:46 | 39.20312 | 125.67191 | 127 ft | 11 kts | 125° |
| 2026-04-22 18:46 | 39.20267 | 125.67287 | 127 ft | 13 kts | 120° |
| 2026-04-22 18:46 | 39.20215 | 125.67394 | 127 ft | 14 kts | 132° |
| 2026-04-22 18:46 | 39.20121 | 125.67455 | 127 ft | 15 kts | 163° |
| 2026-04-22 18:47 | 39.20011 | 125.67499 | 127 ft | 17 kts | 163° |
| 2026-04-22 18:47 | 39.19890 | 125.67546 | 127 ft | 18 kts | 163° |
| 2026-04-22 18:47 | 39.19759 | 125.67597 | 127 ft | 20 kts | 163° |
| 2026-04-22 18:47 | 39.19620 | 125.67652 | 127 ft | 21 kts | 163° |
| 2026-04-22 18:48 | 39.19474 | 125.67709 | 127 ft | 22 kts | 163° |
| 2026-04-22 18:48 | 39.19318 | 125.67771 | 127 ft | 24 kts | 162° |
| 2026-04-22 18:48 | 39.19188 | 125.67823 | 127 ft | 15 kts | 165° |
| 2026-04-22 18:48 | 39.19104 | 125.67794 | 127 ft | 13 kts | 236° |
| 2026-04-22 18:49 | 39.19099 | 125.67674 | 127 ft | 14 kts | 290° |
| 2026-04-22 18:49 | 39.19132 | 125.67591 | 127 ft | 9 kts | 315° |
| 2026-04-22 18:49 | 39.19174 | 125.67567 | 127 ft | 0 kts | 343° |
| 2026-04-22 18:50 | 39.19330 | 125.67507 | 127 ft | 60 kts | 343° |
| 2026-04-22 18:50 | 39.20000 | 125.67247 | 128 ft | 135 kts | 344° |
| 2026-04-22 18:50 | 39.21084 | 125.66826 | 205 ft | 182 kts | 345° |
| 2026-04-22 18:51 | 39.22210 | 125.66361 | 1094 ft | 166 kts | 345° |
| 2026-04-22 18:51 | 39.23343 | 125.66133 | 1673 ft | 166 kts | 12° |
| 2026-04-22 18:51 | 39.24320 | 125.66773 | 2152 ft | 164 kts | 49° |
| 2026-04-22 18:51 | 39.24869 | 125.68055 | 2560 ft | 167 kts | 71° |
| 2026-04-22 18:52 | 39.25161 | 125.69526 | 2951 ft | 171 kts | 71° |
| 2026-04-22 18:52 | 39.25518 | 125.70999 | 3329 ft | 177 kts | 69° |
| 2026-04-22 18:52 | 39.25921 | 125.72572 | 3538 ft | 194 kts | 69° |
| 2026-04-22 18:52 | 39.26368 | 125.74365 | 3697 ft | 223 kts | 70° |
| 2026-04-22 18:53 | 39.26845 | 125.76341 | 4056 ft | 244 kts | 71° |
| 2026-04-22 18:53 | 39.27356 | 125.78500 | 4688 ft | 259 kts | 71° |
| 2026-04-22 18:53 | 39.27882 | 125.80730 | 5344 ft | 267 kts | 71° |
| 2026-04-22 18:53 | 39.28436 | 125.83073 | 5371 ft | 272 kts | 71° |
| 2026-04-22 18:54 | 39.28869 | 125.85466 | 5384 ft | 272 kts | 79° |
| 2026-04-22 18:54 | 39.28976 | 125.87916 | 5696 ft | 279 kts | 91° |
| 2026-04-22 18:54 | 39.28782 | 125.90341 | 6797 ft | 278 kts | 96° |
| 2026-04-22 18:54 | 39.28462 | 125.92828 | 7665 ft | 285 kts | 98° |
| 2026-04-22 18:55 | 39.28101 | 125.95345 | 8549 ft | 290 kts | 97° |
| 2026-04-22 18:55 | 39.27750 | 125.97897 | 9462 ft | 294 kts | 96° |
| 2026-04-22 18:55 | 39.27424 | 126.00527 | 10351 ft | 300 kts | 96° |
| 2026-04-22 18:55 | 39.27108 | 126.03291 | 10703 ft | 326 kts | 96° |
| 2026-04-22 18:56 | 39.26771 | 126.06306 | 10952 ft | 354 kts | 96° |
| 2026-04-22 18:56 | 39.26404 | 126.09544 | 11267 ft | 378 kts | 96° |
| 2026-04-22 18:56 | 39.26007 | 126.12953 | 11985 ft | 391 kts | 97° |
| 2026-04-22 18:56 | 39.25588 | 126.16441 | 12810 ft | 399 kts | 99° |
| 2026-04-22 18:57 | 39.24917 | 126.19930 | 13680 ft | 405 kts | 108° |
| 2026-04-22 18:57 | 39.23808 | 126.23238 | 14513 ft | 412 kts | 118° |
| 2026-04-22 18:57 | 39.22224 | 126.26350 | 15267 ft | 420 kts | 128° |
| 2026-04-22 18:57 | 39.20334 | 126.29262 | 16022 ft | 427 kts | 132° |
| 2026-04-22 18:58 | 39.18362 | 126.32116 | 16761 ft | 434 kts | 133° |
| 2026-04-22 18:58 | 39.16325 | 126.35071 | 17512 ft | 441 kts | 133° |
| 2026-04-22 18:58 | 39.14331 | 126.38042 | 18240 ft | 448 kts | 132° |
| 2026-04-22 18:58 | 39.12300 | 126.41142 | 18886 ft | 456 kts | 131° |
| 2026-04-22 18:59 | 39.10248 | 126.44311 | 19572 ft | 463 kts | 132° |
| 2026-04-22 18:59 | 39.08167 | 126.47508 | 20251 ft | 469 kts | 133° |
| 2026-04-22 18:59 | 39.06052 | 126.50734 | 20818 ft | 478 kts | 133° |
| 2026-04-22 18:59 | 39.03905 | 126.54010 | 21473 ft | 484 kts | 133° |
| 2026-04-22 19:00 | 39.01735 | 126.57342 | 22022 ft | 492 kts | 133° |
| 2026-04-22 19:00 | 38.99535 | 126.60731 | 22624 ft | 499 kts | 133° |
| 2026-04-22 19:00 | 38.97293 | 126.64172 | 23201 ft | 505 kts | 134° |
| 2026-04-22 19:00 | 38.94997 | 126.67679 | 23791 ft | 511 kts | 135° |
| 2026-04-22 19:01 | 38.92679 | 126.71233 | 24417 ft | 516 kts | 135° |
| 2026-04-22 19:01 | 38.90396 | 126.74751 | 25040 ft | 520 kts | 135° |
| 2026-04-22 19:01 | 38.88072 | 126.78328 | 25671 ft | 524 kts | 136° |
| 2026-04-22 19:01 | 38.85710 | 126.81951 | 26300 ft | 527 kts | 136° |
| 2026-04-22 19:02 | 38.83361 | 126.85551 | 26923 ft | 532 kts | 137° |
| 2026-04-22 19:02 | 38.80978 | 126.89232 | 27552 ft | 535 kts | 136° |
| 2026-04-22 19:02 | 38.78655 | 126.93006 | 28064 ft | 543 kts | 134° |
| 2026-04-22 19:02 | 38.76384 | 126.96891 | 28911 ft | 541 kts | 134° |
| 2026-04-22 19:03 | 38.74131 | 127.00759 | 29568 ft | 542 kts | 134° |
| 2026-04-22 19:03 | 38.71867 | 127.04627 | 30322 ft | 540 kts | 135° |
| 2026-04-22 19:03 | 38.69640 | 127.08417 | 31144 ft | 536 kts | 135° |
| 2026-04-22 19:03 | 38.67393 | 127.12225 | 31861 ft | 533 kts | 136° |
| 2026-04-22 19:04 | 38.65173 | 127.15977 | 32568 ft | 530 kts | 136° |
| 2026-04-22 19:04 | 38.62933 | 127.19768 | 32728 ft | 526 kts | 137° |
| 2026-04-22 19:04 | 38.58550 | 127.27172 | 32748 ft | 521 kts | 136° |
| 2026-04-22 19:05 | 38.54193 | 127.34570 | 32762 ft | 524 kts | 136° |
| 2026-04-22 19:05 | 38.49833 | 127.42020 | 32779 ft | 526 kts | 136° |
| 2026-04-22 19:06 | 38.45452 | 127.49481 | 32774 ft | 524 kts | 136° |
| 2026-04-22 19:07 | 38.38899 | 127.60690 | 32776 ft | 526 kts | 135° |
| 2026-04-22 19:07 | 38.34520 | 127.68186 | 32780 ft | 524 kts | 136° |
| 2026-04-22 19:08 | 38.30185 | 127.75604 | 32769 ft | 522 kts | 136° |
| 2026-04-22 19:08 | 38.25758 | 127.82935 | 32773 ft | 520 kts | 137° |
| 2026-04-22 19:09 | 38.21322 | 127.90202 | 32775 ft | 521 kts | 137° |
| 2026-04-22 19:09 | 38.17657 | 127.96295 | 32785 ft | 522 kts | 136° |
| 2026-04-22 19:10 | 38.12502 | 128.04814 | 32791 ft | 522 kts | 136° |
| 2026-04-22 19:10 | 38.08097 | 128.12120 | 32794 ft | 520 kts | 136° |
| 2026-04-22 19:11 | 38.03678 | 128.19455 | 32811 ft | 521 kts | 136° |
| 2026-04-22 19:11 | 37.99281 | 128.26749 | 32816 ft | 522 kts | 136° |
| 2026-04-22 19:12 | 37.94914 | 128.34041 | 32818 ft | 522 kts | 136° |
| 2026-04-22 19:12 | 37.90511 | 128.41333 | 32823 ft | 521 kts | 135° |
| 2026-04-22 19:13 | 37.86133 | 128.48665 | 32838 ft | 522 kts | 135° |
| 2026-04-22 19:13 | 37.81731 | 128.55978 | 32894 ft | 521 kts | 135° |
| 2026-04-22 19:14 | 37.77344 | 128.63255 | 32914 ft | 519 kts | 136° |
| 2026-04-22 19:14 | 37.72907 | 128.70473 | 32906 ft | 521 kts | 135° |
| 2026-04-22 19:15 | 37.69445 | 128.76717 | 32921 ft | 526 kts | 131° |
| 2026-04-22 19:15 | 37.64984 | 128.86003 | 32927 ft | 530 kts | 128° |
| 2026-04-22 19:16 | 37.61182 | 128.93964 | 32917 ft | 531 kts | 129° |
| 2026-04-22 19:16 | 37.57344 | 129.01874 | 32918 ft | 529 kts | 129° |
| 2026-04-22 19:17 | 37.53542 | 129.09726 | 32908 ft | 527 kts | 129° |
| 2026-04-22 19:17 | 37.49754 | 129.17624 | 32911 ft | 528 kts | 129° |
| 2026-04-22 19:18 | 37.45937 | 129.25542 | 32914 ft | 528 kts | 129° |
| 2026-04-22 19:18 | 37.42117 | 129.33409 | 32909 ft | 526 kts | 131° |
| 2026-04-22 19:19 | 37.38189 | 129.41106 | 32916 ft | 525 kts | 130° |
| 2026-04-22 19:19 | 37.34360 | 129.48947 | 32907 ft | 526 kts | 129° |
| 2026-04-22 19:20 | 37.30556 | 129.56793 | 32906 ft | 526 kts | 129° |
| 2026-04-22 19:20 | 37.26762 | 129.64621 | 32910 ft | 527 kts | 128° |
| 2026-04-22 19:21 | 37.22993 | 129.72452 | 32878 ft | 525 kts | 129° |
| 2026-04-22 19:21 | 37.19219 | 129.80237 | 32875 ft | 524 kts | 129° |
| 2026-04-22 19:22 | 37.15434 | 129.88045 | 32888 ft | 522 kts | 131° |
| 2026-04-22 19:22 | 37.11474 | 129.95645 | 32879 ft | 522 kts | 131° |
| 2026-04-22 19:23 | 37.07587 | 130.03320 | 32884 ft | 525 kts | 130° |
| 2026-04-22 19:23 | 37.03738 | 130.11089 | 32887 ft | 522 kts | 130° |
| 2026-04-22 19:24 | 36.99891 | 130.18779 | 32888 ft | 520 kts | 130° |
| 2026-04-22 19:24 | 36.96087 | 130.26439 | 32889 ft | 523 kts | 129° |
| 2026-04-22 19:25 | 36.92270 | 130.34139 | 32895 ft | 522 kts | 130° |
| 2026-04-22 19:25 | 36.88429 | 130.41879 | 32898 ft | 522 kts | 129° |
| 2026-04-22 19:26 | 36.84636 | 130.49554 | 32899 ft | 521 kts | 129° |
| 2026-04-22 19:26 | 36.80823 | 130.57254 | 32889 ft | 522 kts | 129° |
| 2026-04-22 19:27 | 36.77021 | 130.64986 | 32891 ft | 524 kts | 129° |
| 2026-04-22 19:27 | 36.73128 | 130.72650 | 32871 ft | 520 kts | 132° |
| 2026-04-22 19:28 | 36.69132 | 130.80156 | 32871 ft | 519 kts | 131° |
| 2026-04-22 19:28 | 36.65255 | 130.87723 | 32871 ft | 521 kts | 130° |
| 2026-04-22 19:29 | 36.61371 | 130.95357 | 32878 ft | 523 kts | 130° |
| 2026-04-22 19:29 | 36.57499 | 131.02962 | 32872 ft | 523 kts | 130° |
| 2026-04-22 19:30 | 36.54283 | 131.09328 | 32872 ft | 522 kts | 130° |
| 2026-04-22 19:30 | 36.49737 | 131.18256 | 32874 ft | 523 kts | 130° |
| 2026-04-22 19:31 | 36.45903 | 131.25882 | 32872 ft | 522 kts | 130° |
| 2026-04-22 19:31 | 36.42027 | 131.33498 | 32877 ft | 524 kts | 130° |
| 2026-04-22 19:32 | 36.38490 | 131.41440 | 32867 ft | 535 kts | 118° |
| 2026-04-22 19:32 | 36.36760 | 131.50487 | 32896 ft | 553 kts | 99° |
| 2026-04-22 19:33 | 36.36616 | 131.60028 | 32880 ft | 558 kts | 94° |
| 2026-04-22 19:33 | 36.36451 | 131.69679 | 32852 ft | 558 kts | 97° |
| 2026-04-22 19:34 | 36.36080 | 131.79227 | 32863 ft | 558 kts | 98° |
| 2026-04-22 19:34 | 36.35686 | 131.88837 | 32869 ft | 560 kts | 98° |
| 2026-04-22 19:35 | 36.35338 | 131.98503 | 32874 ft | 561 kts | 97° |
| 2026-04-22 19:35 | 36.35055 | 132.06493 | 32872 ft | 561 kts | 97° |
| 2026-04-22 19:36 | 36.34674 | 132.17806 | 32884 ft | 564 kts | 97° |
| 2026-04-22 19:36 | 36.34350 | 132.27489 | 32874 ft | 563 kts | 97° |
| 2026-04-22 19:37 | 36.34049 | 132.37152 | 32888 ft | 563 kts | 97° |
| 2026-04-22 19:37 | 36.33732 | 132.46864 | 32885 ft | 565 kts | 97° |
| 2026-04-22 19:38 | 36.33456 | 132.56537 | 32893 ft | 564 kts | 97° |
| 2026-04-22 19:38 | 36.33008 | 132.66263 | 32897 ft | 564 kts | 98° |
| 2026-04-22 19:39 | 36.32524 | 132.75983 | 32881 ft | 564 kts | 98° |
| 2026-04-22 19:39 | 36.32072 | 132.85637 | 32883 ft | 564 kts | 98° |
| 2026-04-22 19:40 | 36.31642 | 132.95354 | 32898 ft | 566 kts | 97° |
| 2026-04-22 19:40 | 36.31218 | 133.05100 | 32904 ft | 568 kts | 98° |
| 2026-04-22 19:41 | 36.30794 | 133.14841 | 32903 ft | 568 kts | 97° |
| 2026-04-22 19:41 | 36.30391 | 133.24612 | 32906 ft | 569 kts | 97° |
| 2026-04-22 19:42 | 36.29980 | 133.34337 | 32896 ft | 570 kts | 98° |
| 2026-04-22 19:42 | 36.29597 | 133.44119 | 32903 ft | 570 kts | 97° |
| 2026-04-22 19:43 | 36.29009 | 133.58794 | 32902 ft | 571 kts | 97° |
| 2026-04-22 19:43 | 36.28536 | 133.68588 | 32891 ft | 569 kts | 99° |
| 2026-04-22 19:44 | 36.28049 | 133.78332 | 32884 ft | 570 kts | 98° |
| 2026-04-22 19:44 | 36.27512 | 133.88130 | 32893 ft | 571 kts | 98° |
| 2026-04-22 19:45 | 36.27037 | 133.97966 | 32901 ft | 571 kts | 98° |
| 2026-04-22 19:45 | 36.26558 | 134.07729 | 32899 ft | 571 kts | 97° |
| 2026-04-22 19:46 | 36.26026 | 134.17546 | 32908 ft | 572 kts | 99° |
| 2026-04-22 19:46 | 36.25459 | 134.27348 | 32908 ft | 571 kts | 98° |
| 2026-04-22 19:47 | 36.24963 | 134.37144 | 32912 ft | 572 kts | 97° |
| 2026-04-22 19:47 | 36.24473 | 134.46954 | 32905 ft | 572 kts | 97° |
| 2026-04-22 19:48 | 36.24333 | 134.56804 | 32919 ft | 575 kts | 92° |
| 2026-04-22 19:48 | 36.24485 | 134.66708 | 32908 ft | 577 kts | 92° |
| 2026-04-22 19:49 | 36.24565 | 134.76669 | 32896 ft | 577 kts | 93° |
| 2026-04-22 19:49 | 36.24606 | 134.86572 | 32896 ft | 577 kts | 92° |
| 2026-04-22 19:50 | 36.24663 | 134.96458 | 32900 ft | 577 kts | 92° |
| 2026-04-22 19:50 | 36.24746 | 135.06345 | 32905 ft | 577 kts | 92° |
| 2026-04-22 19:51 | 36.24834 | 135.16281 | 32917 ft | 578 kts | 92° |
| 2026-04-22 19:51 | 36.24929 | 135.26192 | 32913 ft | 578 kts | 92° |
| 2026-04-22 19:52 | 36.25042 | 135.36150 | 32914 ft | 578 kts | 91° |
| 2026-04-22 19:52 | 36.25160 | 135.46118 | 32914 ft | 580 kts | 91° |
| 2026-04-22 19:53 | 36.25289 | 135.56010 | 32917 ft | 580 kts | 91° |
| 2026-04-22 19:53 | 36.25396 | 135.65967 | 32920 ft | 579 kts | 93° |
| 2026-04-22 19:54 | 36.25359 | 135.76013 | 32913 ft | 578 kts | 94° |
| 2026-04-22 19:54 | 36.25303 | 135.85910 | 32912 ft | 579 kts | 93° |
| 2026-04-22 19:55 | 36.25290 | 135.95850 | 32908 ft | 578 kts | 93° |
| 2026-04-22 19:55 | 36.25286 | 136.05864 | 32922 ft | 579 kts | 94° |
| 2026-04-22 19:56 | 36.25283 | 136.15770 | 32917 ft | 578 kts | 92° |
| 2026-04-22 19:56 | 36.25308 | 136.25725 | 32928 ft | 579 kts | 93° |
| 2026-04-22 19:57 | 36.25319 | 136.35696 | 32935 ft | 580 kts | 92° |
| 2026-04-22 19:57 | 36.25354 | 136.45723 | 32930 ft | 580 kts | 92° |
| 2026-04-22 19:58 | 36.25393 | 136.55701 | 32934 ft | 581 kts | 91° |
| 2026-04-22 19:58 | 36.25438 | 136.65720 | 32938 ft | 580 kts | 93° |
| 2026-04-22 20:00 | 36.25076 | 137.00687 | 32931 ft | 580 kts | 92° |
| 2026-04-22 20:01 | 36.25022 | 137.10677 | 32934 ft | 582 kts | 93° |
| 2026-04-22 20:01 | 36.24936 | 137.20703 | 32933 ft | 580 kts | 92° |
| 2026-04-22 20:02 | 36.24882 | 137.30685 | 32941 ft | 581 kts | 92° |
| 2026-04-22 20:02 | 36.24818 | 137.40720 | 32945 ft | 582 kts | 92° |
| 2026-04-22 20:03 | 36.24783 | 137.50722 | 32946 ft | 582 kts | 92° |
| 2026-04-22 20:03 | 36.24711 | 137.60751 | 32934 ft | 580 kts | 94° |
| 2026-04-22 20:04 | 36.24514 | 137.70772 | 32927 ft | 580 kts | 94° |
| 2026-04-22 20:04 | 36.24332 | 137.80749 | 32928 ft | 580 kts | 93° |
| 2026-04-22 20:05 | 36.24193 | 137.90767 | 32943 ft | 581 kts | 94° |
| 2026-04-22 20:05 | 36.24035 | 138.00755 | 32939 ft | 582 kts | 92° |
| 2026-04-22 20:06 | 36.23922 | 138.10780 | 32939 ft | 582 kts | 93° |
| 2026-04-22 20:06 | 36.23775 | 138.20766 | 32944 ft | 582 kts | 93° |
| 2026-04-22 20:07 | 36.23570 | 138.30771 | 32942 ft | 580 kts | 96° |
| 2026-04-22 20:07 | 36.22802 | 138.40686 | 32956 ft | 577 kts | 102° |
| 2026-04-22 20:08 | 36.21560 | 138.50491 | 32961 ft | 577 kts | 102° |
| 2026-04-22 20:08 | 36.20318 | 138.60373 | 32959 ft | 578 kts | 101° |
| 2026-04-22 20:09 | 36.19164 | 138.70244 | 32934 ft | 578 kts | 102° |
| 2026-04-22 20:09 | 36.17973 | 138.80089 | 32938 ft | 577 kts | 102° |
| 2026-04-22 20:10 | 36.16820 | 138.89934 | 32952 ft | 577 kts | 102° |
| 2026-04-22 20:10 | 36.15656 | 138.99744 | 32943 ft | 575 kts | 101° |
| 2026-04-22 20:11 | 36.14518 | 139.09500 | 32951 ft | 575 kts | 101° |
| 2026-04-22 20:11 | 36.13383 | 139.19312 | 32958 ft | 576 kts | 101° |
| 2026-04-22 20:12 | 36.12241 | 139.29175 | 32956 ft | 575 kts | 102° |
| 2026-04-22 20:12 | 36.11314 | 139.37293 | 32958 ft | 575 kts | 101° |
| 2026-04-22 20:13 | 36.09974 | 139.48743 | 32940 ft | 576 kts | 102° |
| 2026-04-22 20:13 | 36.08790 | 139.58583 | 32933 ft | 579 kts | 97° |
| 2026-04-22 20:14 | 36.09201 | 139.68509 | 32952 ft | 581 kts | 77° |
| 2026-04-22 20:14 | 36.11713 | 139.77965 | 32944 ft | 579 kts | 66° |
| 2026-04-22 20:15 | 36.14521 | 139.87239 | 32922 ft | 580 kts | 70° |
| 2026-04-22 20:15 | 36.16984 | 139.96802 | 32930 ft | 582 kts | 71° |
| 2026-04-22 20:16 | 36.19339 | 140.06317 | 32918 ft | 581 kts | 71° |
| 2026-04-22 20:16 | 36.21793 | 140.15922 | 32732 ft | 582 kts | 70° |
| 2026-04-22 20:16 | 36.23024 | 140.20708 | 31702 ft | 591 kts | 70° |
| 2026-04-22 20:17 | 36.24272 | 140.25581 | 30707 ft | 595 kts | 71° |
| 2026-04-22 20:17 | 36.25514 | 140.30453 | 29718 ft | 597 kts | 71° |
| 2026-04-22 20:17 | 36.26753 | 140.35278 | 29003 ft | 588 kts | 71° |
| 2026-04-22 20:17 | 36.28008 | 140.40120 | 27926 ft | 586 kts | 70° |
| 2026-04-22 20:18 | 36.29168 | 140.44899 | 26876 ft | 583 kts | 75° |
| 2026-04-22 20:18 | 36.29870 | 140.49852 | 25861 ft | 578 kts | 85° |
| 2026-04-22 20:18 | 36.29983 | 140.54761 | 24923 ft | 570 kts | 95° |
| 2026-04-22 20:18 | 36.29484 | 140.59517 | 24040 ft | 558 kts | 105° |
| 2026-04-22 20:19 | 36.28329 | 140.64050 | 23189 ft | 543 kts | 117° |
| 2026-04-22 20:19 | 36.26566 | 140.68053 | 22373 ft | 526 kts | 130° |
| 2026-04-22 20:19 | 36.24242 | 140.71463 | 21582 ft | 505 kts | 143° |
| 2026-04-22 20:19 | 36.21549 | 140.74043 | 20862 ft | 483 kts | 155° |
| 2026-04-22 20:20 | 36.18658 | 140.75983 | 20202 ft | 471 kts | 160° |
| 2026-04-22 20:20 | 36.15710 | 140.77760 | 19530 ft | 468 kts | 160° |
| 2026-04-22 20:20 | 36.12805 | 140.79486 | 18863 ft | 464 kts | 162° |
| 2026-04-22 20:20 | 36.09802 | 140.80969 | 18199 ft | 458 kts | 166° |
| 2026-04-22 20:21 | 36.06838 | 140.82240 | 17566 ft | 454 kts | 167° |
| 2026-04-22 20:21 | 36.03866 | 140.83478 | 16929 ft | 449 kts | 167° |
| 2026-04-22 20:21 | 36.00903 | 140.84715 | 16290 ft | 445 kts | 167° |
| 2026-04-22 20:21 | 35.98021 | 140.85957 | 15653 ft | 440 kts | 165° |
| 2026-04-22 20:22 | 35.95135 | 140.87234 | 15025 ft | 437 kts | 165° |
| 2026-04-22 20:22 | 35.92289 | 140.88515 | 14629 ft | 431 kts | 165° |
| 2026-04-22 20:22 | 35.89482 | 140.89781 | 14567 ft | 432 kts | 165° |
| 2026-04-22 20:22 | 35.86660 | 140.91048 | 14220 ft | 435 kts | 165° |
| 2026-04-22 20:23 | 35.83818 | 140.92320 | 13716 ft | 432 kts | 164° |
| 2026-04-22 20:23 | 35.80978 | 140.93552 | 13070 ft | 429 kts | 166° |
| 2026-04-22 20:23 | 35.78117 | 140.94321 | 12415 ft | 410 kts | 179° |
| 2026-04-22 20:23 | 35.75362 | 140.94293 | 11941 ft | 391 kts | 192° |
| 2026-04-22 20:24 | 35.72768 | 140.93488 | 11418 ft | 377 kts | 206° |
| 2026-04-22 20:24 | 35.70501 | 140.92017 | 10914 ft | 359 kts | 216° |
| 2026-04-22 20:24 | 35.68540 | 140.90276 | 10469 ft | 342 kts | 220° |
| 2026-04-22 20:24 | 35.66708 | 140.88512 | 10025 ft | 328 kts | 220° |
| 2026-04-22 20:25 | 35.64977 | 140.86850 | 9953 ft | 304 kts | 220° |
| 2026-04-22 20:25 | 35.63322 | 140.85316 | 9807 ft | 292 kts | 219° |
| 2026-04-22 20:25 | 35.61688 | 140.83855 | 9386 ft | 284 kts | 218° |
| 2026-04-22 20:25 | 35.60113 | 140.82477 | 8989 ft | 273 kts | 217° |
| 2026-04-22 20:26 | 35.58588 | 140.81149 | 8684 ft | 261 kts | 218° |
| 2026-04-22 20:26 | 35.57114 | 140.79862 | 8415 ft | 263 kts | 218° |
| 2026-04-22 20:26 | 35.55623 | 140.78546 | 8070 ft | 264 kts | 219° |
| 2026-04-22 20:26 | 35.54398 | 140.76938 | 7945 ft | 251 kts | 240° |
| 2026-04-22 20:27 | 35.53801 | 140.74995 | 7912 ft | 243 kts | 261° |
| 2026-04-22 20:27 | 35.53859 | 140.72946 | 7578 ft | 242 kts | 284° |
| 2026-04-22 20:27 | 35.54499 | 140.71030 | 7196 ft | 241 kts | 292° |
| 2026-04-22 20:27 | 35.55201 | 140.69199 | 6798 ft | 240 kts | 292° |
| 2026-04-22 20:28 | 35.55900 | 140.67337 | 6419 ft | 238 kts | 291° |
| 2026-04-22 20:28 | 35.56571 | 140.65482 | 6047 ft | 236 kts | 291° |
| 2026-04-22 20:28 | 35.57201 | 140.63684 | 5752 ft | 222 kts | 290° |
| 2026-04-22 20:28 | 35.57785 | 140.61987 | 5418 ft | 213 kts | 290° |
| 2026-04-22 20:29 | 35.58349 | 140.60323 | 5085 ft | 207 kts | 290° |
| 2026-04-22 20:29 | 35.58891 | 140.58711 | 4770 ft | 206 kts | 290° |
| 2026-04-22 20:29 | 35.59439 | 140.57083 | 4458 ft | 207 kts | 290° |
| 2026-04-22 20:29 | 35.59992 | 140.55449 | 4139 ft | 209 kts | 290° |
| 2026-04-22 20:30 | 35.60549 | 140.53806 | 3827 ft | 209 kts | 290° |
| 2026-04-22 20:30 | 35.61107 | 140.52165 | 3515 ft | 207 kts | 290° |
| 2026-04-22 20:30 | 35.61657 | 140.50526 | 3213 ft | 206 kts | 291° |
| 2026-04-22 20:30 | 35.62201 | 140.48915 | 3036 ft | 204 kts | 290° |
| 2026-04-22 20:31 | 35.62885 | 140.47347 | 2788 ft | 215 kts | 308° |
| 2026-04-22 20:31 | 35.63994 | 140.46196 | 2458 ft | 206 kts | 327° |
| 2026-04-22 20:31 | 35.65246 | 140.45349 | 2163 ft | 201 kts | 333° |
| 2026-04-22 20:31 | 35.66483 | 140.44600 | 1900 ft | 191 kts | 334° |
| 2026-04-22 20:32 | 35.67645 | 140.43884 | 1654 ft | 181 kts | 332° |
| 2026-04-22 20:32 | 35.68722 | 140.43164 | 1438 ft | 173 kts | 330° |
| 2026-04-22 20:32 | 35.69751 | 140.42439 | 1196 ft | 168 kts | 329° |
| 2026-04-22 20:32 | 35.70751 | 140.41701 | 1004 ft | 166 kts | 329° |
| 2026-04-22 20:33 | 35.71728 | 140.40942 | 789 ft | 166 kts | 330° |
| 2026-04-22 20:33 | 35.72718 | 140.40224 | 544 ft | 163 kts | 331° |
| 2026-04-22 20:33 | 35.73690 | 140.39531 | 330 ft | 162 kts | 330° |
| 2026-04-22 20:33 | 35.74649 | 140.38843 | 145 ft | 154 kts | 328° |
| 2026-04-22 20:34 | 35.75502 | 140.38228 | 144 ft | 125 kts | 330° |
| 2026-04-22 20:34 | 35.76146 | 140.37767 | 139 ft | 91 kts | 329° |
| 2026-04-22 20:34 | 35.76648 | 140.37404 | 131 ft | 72 kts | 329° |
| 2026-04-22 20:34 | 35.77016 | 140.37137 | 128 ft | 51 kts | 330° |
| 2026-04-22 20:35 | 35.77214 | 140.37006 | 126 ft | 24 kts | 339° |
| 2026-04-22 20:35 | 35.77314 | 140.37033 | 124 ft | 8 kts | 60° |
| 2026-04-22 20:35 | 35.77317 | 140.37039 | 124 ft | 0 kts | 61° |
| 2026-04-22 20:36 | 35.77318 | 140.37042 | 124 ft | 1 kts | 61° |
| 2026-04-22 20:36 | 35.77331 | 140.37071 | 123 ft | 6 kts | 63° |
| 2026-04-22 20:36 | 35.77340 | 140.37135 | 121 ft | 9 kts | 111° |
| 2026-04-22 20:36 | 35.77289 | 140.37193 | 122 ft | 9 kts | 147° |
| 2026-04-22 20:37 | 35.77231 | 140.37238 | 123 ft | 9 kts | 150° |
| 2026-04-22 20:37 | 35.77171 | 140.37279 | 124 ft | 10 kts | 150° |
| 2026-04-22 20:37 | 35.77107 | 140.37326 | 125 ft | 10 kts | 150° |
| 2026-04-22 20:37 | 35.77041 | 140.37373 | 128 ft | 10 kts | 150° |
| 2026-04-22 20:38 | 35.76978 | 140.37419 | 129 ft | 10 kts | 149° |
| 2026-04-22 20:38 | 35.76909 | 140.37468 | 130 ft | 12 kts | 149° |
| 2026-04-22 20:38 | 35.76831 | 140.37524 | 131 ft | 13 kts | 150° |
| 2026-04-22 20:38 | 35.76742 | 140.37589 | 133 ft | 15 kts | 150° |
| 2026-04-22 20:39 | 35.76641 | 140.37662 | 134 ft | 17 kts | 149° |
| 2026-04-22 20:39 | 35.76532 | 140.37741 | 136 ft | 18 kts | 150° |
| 2026-04-22 20:39 | 35.76416 | 140.37825 | 137 ft | 19 kts | 149° |
| 2026-04-22 20:39 | 35.76297 | 140.37911 | 139 ft | 20 kts | 150° |
| 2026-04-22 20:40 | 35.76173 | 140.38001 | 141 ft | 21 kts | 150° |
| 2026-04-22 20:40 | 35.76042 | 140.38095 | 142 ft | 21 kts | 150° |
| 2026-04-22 20:40 | 35.75907 | 140.38193 | 142 ft | 23 kts | 150° |
| 2026-04-22 20:40 | 35.75758 | 140.38300 | 141 ft | 25 kts | 150° |
| 2026-04-22 20:41 | 35.75598 | 140.38415 | 141 ft | 27 kts | 150° |
| 2026-04-22 20:41 | 35.75429 | 140.38538 | 141 ft | 28 kts | 150° |
| 2026-04-22 20:41 | 35.75254 | 140.38664 | 141 ft | 30 kts | 150° |
| 2026-04-22 20:41 | 35.75097 | 140.38777 | 140 ft | 24 kts | 150° |
| 2026-04-22 20:42 | 35.74945 | 140.38888 | 141 ft | 25 kts | 151° |
| 2026-04-22 20:42 | 35.74794 | 140.38997 | 140 ft | 25 kts | 149° |
| 2026-04-22 20:42 | 35.74660 | 140.39093 | 137 ft | 15 kts | 150° |
| 2026-04-22 20:42 | 35.74606 | 140.39151 | 136 ft | 8 kts | 99° |
| 2026-04-22 20:43 | 35.74624 | 140.39220 | 137 ft | 8 kts | 61° |
| 2026-04-22 20:43 | 35.74651 | 140.39276 | 139 ft | 6 kts | 59° |
| 2026-04-22 20:43 | 35.74674 | 140.39323 | 141 ft | 5 kts | 59° |
| 2026-04-22 20:43 | 35.74694 | 140.39366 | 142 ft | 6 kts | 60° |
| 2026-04-22 20:44 | 35.74722 | 140.39424 | 143 ft | 9 kts | 60° |
| 2026-04-22 20:44 | 35.74755 | 140.39493 | 145 ft | 7 kts | 59° |
| 2026-04-22 20:44 | 35.74789 | 140.39522 | 147 ft | 5 kts | 10° |
| 2026-04-22 20:44 | 35.74828 | 140.39508 | 147 ft | 6 kts | 334° |
| 2026-04-22 20:45 | 35.74867 | 140.39482 | 147 ft | 7 kts | 330° |
| 2026-04-22 20:45 | 35.74917 | 140.39447 | 147 ft | 9 kts | 330° |
| 2026-04-22 20:45 | 35.74961 | 140.39416 | 146 ft | 5 kts | 330° |
| 2026-04-22 20:45 | 35.74970 | 140.39388 | 145 ft | 3 kts | 262° |
| 2026-04-22 20:46 | 35.74939 | 140.39311 | 143 ft | 0 kts | 240° |
| 2026-04-22 20:46 | 35.74937 | 140.39307 | 143 ft | 0 kts | 240° |